Time;durP1;ratioP1;P1;durP2;ratioP2;P2;SDS_P1;SDS_P2;PMS_P1;PMS_P2;Temp;Humidity;BMP_temperature;BMP_pressure;BME280_temperature;BME280_humidity;BME280_pressure;Samples;Min_cycle;Max_cycle;Signal;HPM_P1;HPM_P2
2021/04/27 00:02:17;;;;;;;3.15;1.75;;;;;;;10.59;47.08;100783.25;4882935;28;112125;-60
2021/04/27 00:04:43;;;;;;;3.58;1.75;;;;;;;10.59;47.40;100783.25;4882798;28;120178;-60
2021/04/27 00:07:10;;;;;;;3.78;1.92;;;;;;;10.55;47.06;100782.13;4884598;28;116356;-60
2021/04/27 00:09:36;;;;;;;4.35;2.10;;;;;;;10.53;47.14;100776.19;4899403;28;102345;-60
2021/04/27 00:12:02;;;;;;;4.00;1.98;;;;;;;10.50;47.08;100774.84;4884834;28;105273;-58
2021/04/27 00:14:28;;;;;;;4.78;2.25;;;;;;;10.47;46.97;100769.94;4904325;28;112000;-59
2021/04/27 00:16:54;;;;;;;4.63;2.30;;;;;;;10.44;47.30;100773.16;4903925;28;107979;-58
2021/04/27 00:19:20;;;;;;;4.05;2.13;;;;;;;10.45;47.43;100776.66;4904255;28;98197;-58
2021/04/27 00:21:47;;;;;;;3.33;1.88;;;;;;;10.40;47.31;100772.06;4903504;28;108151;-60
2021/04/27 00:24:13;;;;;;;3.80;2.33;;;;;;;10.37;47.85;100777.94;4904822;28;98372;-60
2021/04/27 00:26:39;;;;;;;4.53;2.10;;;;;;;10.33;47.23;100768.75;4903669;28;98944;-60
2021/04/27 00:29:05;;;;;;;4.65;2.42;;;;;;;10.34;47.69;100767.72;4903761;28;127708;-59
2021/04/27 00:31:32;;;;;;;3.78;2.33;;;;;;;10.22;47.23;100765.16;4902727;28;116935;-60
2021/04/27 00:33:58;;;;;;;3.33;2.20;;;;;;;10.28;47.85;100760.66;4886589;28;100460;-58
2021/04/27 00:36:25;;;;;;;4.25;2.20;;;;;;;10.29;48.13;100757.69;4904651;28;98540;-60
2021/04/27 00:38:51;;;;;;;4.13;2.28;;;;;;;10.30;47.88;100753.94;4903860;28;106413;-60
2021/04/27 00:41:17;;;;;;;4.90;2.42;;;;;;;10.45;47.42;100764.03;4902908;28;117717;-60
2021/04/27 00:43:43;;;;;;;5.03;2.58;;;;;;;10.45;47.94;100753.25;4903521;28;128450;-58
2021/04/27 00:46:09;;;;;;;4.00;2.50;;;;;;;10.48;47.59;100754.59;4903495;28;98607;-60
2021/04/27 00:48:35;;;;;;;3.50;2.50;;;;;;;10.48;47.97;100750.00;4904999;28;98373;-58
2021/04/27 00:51:01;;;;;;;4.43;2.35;;;;;;;10.49;47.83;100748.13;4904313;28;104705;-58
2021/04/27 00:53:28;;;;;;;5.18;2.50;;;;;;;10.55;47.18;100752.47;4903309;28;127750;-58
2021/04/27 00:55:54;;;;;;;4.03;2.30;;;;;;;10.54;47.80;100743.59;4904880;28;98495;-59
2021/04/27 00:58:21;;;;;;;6.15;2.20;;;;;;;10.57;48.12;100745.78;4885610;28;107421;-60
2021/04/27 01:00:47;;;;;;;5.00;2.28;;;;;;;10.56;47.44;100748.72;4902520;28;98188;-59
2021/04/27 01:03:13;;;;;;;3.92;2.13;;;;;;;10.63;47.36;100745.78;4903554;28;99316;-58
2021/04/27 01:05:40;;;;;;;4.55;2.80;;;;;;;10.57;48.00;100744.94;4902972;28;129012;-58
2021/04/27 01:08:26;;;;;;;3.28;2.13;;;;;;;10.62;47.92;100731.50;4902773;28;126798;-60
2021/04/27 01:11:26;;;;;;;4.43;2.20;;;;;;;10.60;47.56;100730.13;4902230;28;97786;-58
2021/04/27 01:13:58;;;;;;;4.60;2.38;;;;;;;10.65;47.95;100722.91;4902319;28;108827;-58
2021/04/27 01:16:24;;;;;;;3.25;1.95;;;;;;;10.56;47.59;100735.22;4901945;28;98726;-58
2021/04/27 01:18:52;;;;;;;3.38;1.98;;;;;;;10.58;47.92;100735.78;4902136;28;97936;-58
2021/04/27 01:21:19;;;;;;;2.97;2.00;;;;;;;10.57;48.34;100728.75;4902610;28;98064;-60
2021/04/27 01:24:28;;;;;;;4.78;2.05;;;;;;;10.56;48.18;100724.44;4885090;28;119372;-60
2021/04/27 01:26:57;;;;;;;4.07;2.10;;;;;;;10.55;47.61;100726.34;4902103;28;98364;-59
2021/04/27 01:29:27;;;;;;;3.42;1.83;;;;;;;10.57;48.29;100723.38;4902166;28;98350;-58
2021/04/27 01:31:53;;;;;;;2.90;2.03;;;;;;;10.53;48.40;100720.41;4904284;28;97884;-59
2021/04/27 01:34:28;;;;;;;3.90;2.00;;;;;;;10.57;48.03;100732.28;4901713;28;121720;-60
2021/04/27 01:36:54;;;;;;;3.00;1.80;;;;;;;10.63;47.83;100727.72;4885612;28;99314;-59
2021/04/27 01:39:25;;;;;;;3.33;2.10;;;;;;;10.59;47.97;100725.81;4901356;28;97920;-58
2021/04/27 01:41:52;;;;;;;2.92;2.17;;;;;;;10.65;47.87;100730.16;4901904;28;98001;-61
2021/04/27 01:44:18;;;;;;;3.42;2.33;;;;;;;10.69;47.81;100721.31;4901385;28;114504;-58
2021/04/27 01:46:44;;;;;;;2.92;2.38;;;;;;;10.65;47.33;100725.59;4900544;28;124253;-58
2021/04/27 01:49:11;;;;;;;3.90;2.40;;;;;;;10.69;47.24;100721.31;4884299;28;127275;-60
2021/04/27 01:51:37;;;;;;;4.10;2.53;;;;;;;10.67;47.19;100725.31;4900930;28;105984;-59
2021/04/27 01:54:04;;;;;;;3.47;2.45;;;;;;;10.69;47.39;100720.47;4900540;28;126826;-58
2021/04/27 01:56:30;;;;;;;5.75;2.50;;;;;;;10.60;47.92;100727.44;4900526;28;98563;-60
2021/04/27 01:58:56;;;;;;;5.30;2.22;;;;;;;10.62;47.65;100731.50;4901725;28;127245;-58
2021/04/27 02:01:22;;;;;;;4.25;2.38;;;;;;;10.66;47.35;100721.00;4903764;28;98040;-59
2021/04/27 02:03:49;;;;;;;5.10;2.30;;;;;;;10.60;47.58;100722.84;4902571;28;120111;-60
2021/04/27 02:06:15;;;;;;;3.78;2.30;;;;;;;10.56;47.53;100724.44;4903337;28;98582;-58
2021/04/27 02:08:45;;;;;;;4.65;2.38;;;;;;;10.60;47.48;100717.47;4903141;28;112154;-60
2021/04/27 02:11:11;;;;;;;5.55;2.42;;;;;;;10.54;47.90;100721.22;4901501;28;111191;-58
2021/04/27 02:13:37;;;;;;;4.53;2.33;;;;;;;10.58;47.61;100730.41;4900813;28;128203;-60
2021/04/27 02:16:04;;;;;;;4.35;2.20;;;;;;;10.57;47.33;100723.38;4916988;28;98698;-60
2021/04/27 02:18:38;;;;;;;3.90;2.30;;;;;;;10.52;47.57;100721.47;4901103;28;97747;-60
2021/04/27 02:21:05;;;;;;;4.25;2.40;;;;;;;10.49;47.78;100713.91;4885943;28;97972;-60
2021/04/27 02:23:31;;;;;;;4.05;2.47;;;;;;;10.51;47.36;100719.03;4900855;28;114012;-58
2021/04/27 02:25:59;;;;;;;3.85;2.40;;;;;;;10.49;47.62;100715.78;4900747;28;99458;-60
2021/04/27 02:28:25;;;;;;;4.65;2.40;;;;;;;10.46;47.40;100711.75;4903041;28;98600;-60
2021/04/27 02:30:52;;;;;;;3.72;2.30;;;;;;;10.42;47.22;100716.03;4885243;28;97963;-58
2021/04/27 02:33:19;;;;;;;3.28;2.10;;;;;;;10.43;47.82;100706.06;4903028;28;98598;-60
2021/04/27 02:35:47;;;;;;;3.63;2.28;;;;;;;10.41;48.03;100706.28;4902629;28;113545;-61
2021/04/27 02:38:13;;;;;;;3.90;2.22;;;;;;;10.40;47.72;100714.66;4902679;28;98493;-58
2021/04/27 02:40:39;;;;;;;3.63;2.17;;;;;;;10.36;47.77;100708.16;4899809;28;116990;-58
2021/04/27 02:43:05;;;;;;;3.40;2.03;;;;;;;10.32;47.76;100711.38;4901274;28;126983;-60
2021/04/27 02:45:32;;;;;;;4.07;2.30;;;;;;;10.29;48.46;100706.50;4901497;28;98601;-58
2021/04/27 02:48:12;;;;;;;2.75;1.95;;;;;;;10.31;48.35;100703.56;4900912;28;98039;-60
2021/04/27 02:50:45;;;;;;;4.13;2.22;;;;;;;10.28;47.83;100707.56;4901294;28;98059;-59
2021/04/27 02:53:14;;;;;;;3.58;2.28;;;;;;;10.22;47.78;100697.81;4901999;28;113246;-60
2021/04/27 02:55:43;;;;;;;3.13;2.00;;;;;;;10.23;47.80;100694.03;4901128;28;117219;-58
2021/04/27 02:58:09;;;;;;;4.03;2.45;;;;;;;10.21;47.78;100698.06;4901819;28;98449;-60
2021/04/27 03:00:36;;;;;;;4.25;2.28;;;;;;;10.19;47.92;100690.25;4903661;28;98099;-60
2021/04/27 03:03:02;;;;;;;3.83;2.08;;;;;;;10.21;47.55;100698.06;4897137;28;100756;-61
2021/04/27 03:05:28;;;;;;;4.20;2.63;;;;;;;10.21;47.39;100693.47;4883271;28;115478;-58
2021/04/27 03:07:54;;;;;;;4.40;2.45;;;;;;;10.18;48.06;100696.72;4882156;28;127409;-59
2021/04/27 03:10:20;;;;;;;5.18;2.92;;;;;;;10.15;48.35;100699.09;4903959;28;116941;-58
2021/04/27 03:12:46;;;;;;;3.78;3.00;;;;;;;10.10;48.16;100702.59;4903347;28;127149;-60
2021/04/27 03:15:13;;;;;;;5.30;3.63;;;;;;;10.13;47.91;100698.53;4904271;28;126936;-58
2021/04/27 03:17:39;;;;;;;5.45;3.70;;;;;;;10.13;48.38;100693.16;4905654;28;98054;-59
2021/04/27 03:20:07;;;;;;;5.35;3.63;;;;;;;10.06;48.23;100696.91;4905858;28;97985;-61
2021/04/27 03:22:33;;;;;;;5.05;3.58;;;;;;;10.05;48.04;100697.13;4905511;28;101244;-58
2021/04/27 03:24:59;;;;;;;5.43;3.30;;;;;;;10.03;48.45;100696.59;4905711;28;98864;-59
2021/04/27 03:27:26;;;;;;;6.00;3.65;;;;;;;10.03;48.10;100691.22;4904379;28;128204;-60
2021/04/27 03:29:52;;;;;;;4.80;3.10;;;;;;;9.99;47.81;100696.28;4904438;28;118827;-61
2021/04/27 03:32:18;;;;;;;4.63;3.20;;;;;;;9.99;48.08;100700.88;4904493;28;126451;-59
2021/04/27 03:34:44;;;;;;;3.97;3.10;;;;;;;9.95;48.19;100699.75;4905769;28;98738;-60
2021/04/27 03:37:10;;;;;;;5.25;2.78;;;;;;;9.96;47.93;100701.38;4905786;28;98028;-60
2021/04/27 03:39:37;;;;;;;5.38;3.10;;;;;;;9.93;48.06;100704.59;4905143;28;116735;-60
2021/04/27 03:42:04;;;;;;;3.78;2.70;;;;;;;9.93;48.31;100694.63;4905860;28;98472;-59
2021/04/27 03:44:31;;;;;;;4.53;2.78;;;;;;;9.91;48.24;100699.47;4903295;28;99449;-58
2021/04/27 03:46:57;;;;;;;5.45;2.78;;;;;;;9.92;48.27;100706.47;4903608;28;128351;-59
2021/04/27 03:49:23;;;;;;;5.05;2.10;;;;;;;9.90;48.60;100707.78;4905869;28;97907;-60
2021/04/27 03:51:49;;;;;;;4.60;2.42;;;;;;;9.90;47.83;100708.59;4902600;28;98159;-58
2021/04/27 03:54:16;;;;;;;4.05;2.30;;;;;;;9.89;47.86;100709.66;4903152;28;113312;-58
2021/04/27 03:56:42;;;;;;;4.07;2.30;;;;;;;9.90;47.69;100713.16;4918668;28;117785;-60
2021/04/27 03:59:08;;;;;;;4.15;2.47;;;;;;;9.86;48.22;100704.78;4903840;28;119208;-60
2021/04/27 04:01:34;;;;;;;5.32;3.15;;;;;;;9.89;47.71;100703.47;4884476;28;126053;-58
2021/04/27 04:04:00;;;;;;;5.50;3.80;;;;;;;9.86;47.86;100707.47;4885665;28;117751;-59
2021/04/27 04:06:27;;;;;;;6.43;4.03;;;;;;;9.88;47.81;100709.94;4885180;28;121201;-62
2021/04/27 04:08:53;;;;;;;8.43;4.85;;;;;;;9.84;47.83;100715.00;4896253;28;97734;-60
2021/04/27 04:11:19;;;;;;;7.07;4.93;;;;;;;9.86;47.79;100712.88;4902776;28;98405;-58
2021/04/27 04:13:45;;;;;;;6.43;4.90;;;;;;;9.83;48.50;100716.09;4904130;28;127256;-58
2021/04/27 04:16:11;;;;;;;8.52;5.30;;;;;;;9.89;48.45;100716.94;4903872;28;113801;-58
2021/04/27 04:18:37;;;;;;;7.15;5.05;;;;;;;9.87;48.00;100716.41;4904372;28;105837;-58
2021/04/27 04:21:03;;;;;;;6.88;4.55;;;;;;;9.87;48.38;100714.50;4903370;28;98603;-60
2021/04/27 04:23:29;;;;;;;5.70;4.18;;;;;;;9.91;47.99;100712.13;4904027;28;115204;-58
2021/04/27 04:25:56;;;;;;;6.60;4.03;;;;;;;9.89;47.76;100720.44;4904523;28;97995;-60
2021/04/27 04:28:22;;;;;;;6.40;4.00;;;;;;;9.87;48.50;100713.69;4903398;28;97944;-58
2021/04/27 04:30:48;;;;;;;6.43;4.00;;;;;;;9.89;48.18;100708.84;4904162;28;126064;-60
2021/04/27 04:33:14;;;;;;;5.10;3.65;;;;;;;9.87;48.62;100719.09;4902418;28;126769;-58
2021/04/27 04:35:40;;;;;;;5.40;3.35;;;;;;;9.86;48.44;100720.13;4903881;28;127544;-60
2021/04/27 04:38:07;;;;;;;5.00;3.40;;;;;;;9.82;48.38;100723.38;4905072;28;98168;-58
2021/04/27 04:40:33;;;;;;;5.40;3.42;;;;;;;9.94;48.32;100714.28;4903870;28;98022;-58
2021/04/27 04:42:59;;;;;;;5.00;3.00;;;;;;;9.94;48.70;100703.50;4903795;28;127088;-58
2021/04/27 04:45:25;;;;;;;4.40;3.15;;;;;;;9.94;48.79;100714.28;4902300;28;128147;-60
2021/04/27 04:47:52;;;;;;;4.90;3.20;;;;;;;10.01;49.23;100710.31;4902171;28;97871;-58
2021/04/27 04:50:18;;;;;;;4.40;2.83;;;;;;;10.07;48.19;100716.56;4902171;28;98035;-57
2021/04/27 04:52:44;;;;;;;4.20;2.70;;;;;;;10.07;48.48;100711.16;4904113;28;113880;-60
2021/04/27 04:55:11;;;;;;;5.05;2.90;;;;;;;10.15;48.98;100710.69;4903041;28;121943;-58
2021/04/27 04:57:38;;;;;;;5.07;2.70;;;;;;;10.15;48.47;100718.78;4904448;28;101830;-58
2021/04/27 05:00:11;;;;;;;5.55;2.67;;;;;;;10.15;48.60;100716.06;4903506;28;129618;-60
2021/04/27 05:02:37;;;;;;;4.53;2.65;;;;;;;10.25;48.87;100723.44;4904278;28;98658;-60
2021/04/27 05:05:05;;;;;;;4.50;2.60;;;;;;;10.33;48.38;100720.25;4903790;28;110429;-60
2021/04/27 05:07:33;;;;;;;5.13;2.70;;;;;;;10.39;49.01;100723.81;4904767;28;97863;-60
2021/04/27 05:09:59;;;;;;;5.35;2.80;;;;;;;10.46;48.31;100725.22;4903932;28;98863;-58
2021/04/27 05:12:25;;;;;;;3.65;2.53;;;;;;;10.54;47.92;100729.31;4903482;28;128105;-58
2021/04/27 05:14:51;;;;;;;3.60;2.42;;;;;;;10.60;48.47;100730.13;4901819;28;128310;-60
2021/04/27 05:17:18;;;;;;;3.72;2.50;;;;;;;10.63;48.66;100722.34;4903540;28;116595;-58
2021/04/27 05:19:44;;;;;;;3.85;2.53;;;;;;;10.81;48.06;100723.78;4902415;28;99418;-58
2021/04/27 05:22:10;;;;;;;4.40;2.35;;;;;;;10.83;47.96;100729.72;4901528;28;128448;-60
2021/04/27 05:24:37;;;;;;;3.70;2.40;;;;;;;10.96;47.66;100721.13;4903467;28;98254;-60
2021/04/27 05:27:06;;;;;;;4.82;2.33;;;;;;;11.13;48.03;100726.34;4903149;28;118064;-60
2021/04/27 05:29:32;;;;;;;3.72;1.98;;;;;;;11.23;47.40;100728.25;4903859;28;115890;-58
2021/04/27 05:31:58;;;;;;;2.80;2.08;;;;;;;11.42;47.29;100718.59;4901275;28;110995;-60
2021/04/27 05:34:24;;;;;;;5.10;2.50;;;;;;;11.60;47.39;100720.00;4903171;28;111327;-58
2021/04/27 05:36:50;;;;;;;5.47;2.63;;;;;;;11.83;46.72;100718.69;4901989;28;119925;-58
2021/04/27 05:39:16;;;;;;;4.65;2.30;;;;;;;12.03;46.58;100720.59;4917095;28;127574;-60
2021/04/27 05:41:43;;;;;;;3.92;2.28;;;;;;;12.23;46.10;100712.47;4901674;28;114221;-60
2021/04/27 05:44:09;;;;;;;3.72;2.38;;;;;;;12.43;45.66;100708.91;4901006;28;127510;-58
2021/04/27 05:46:35;;;;;;;3.55;2.22;;;;;;;12.64;45.48;100716.97;4903231;28;114032;-60
2021/04/27 05:49:02;;;;;;;5.28;2.63;;;;;;;12.88;45.14;100707.16;4901735;28;101251;-58
2021/04/27 05:51:28;;;;;;;5.78;2.85;;;;;;;13.12;44.94;100714.63;4896946;28;114827;-60
2021/04/27 05:53:54;;;;;;;5.55;2.67;;;;;;;13.35;44.98;100715.91;4884412;28;97945;-60
2021/04/27 05:56:20;;;;;;;4.65;2.70;;;;;;;13.60;44.60;100712.25;4883203;28;117898;-60
2021/04/27 05:58:46;;;;;;;4.53;2.53;;;;;;;13.88;44.19;100708.78;4883242;28;115548;-58
2021/04/27 06:01:13;;;;;;;6.88;2.95;;;;;;;14.19;43.69;100709.31;4883877;28;101955;-60
2021/04/27 06:03:39;;;;;;;5.07;3.05;;;;;;;14.38;43.73;100709.41;4882921;28;128869;-60
2021/04/27 06:06:05;;;;;;;5.90;3.13;;;;;;;14.60;43.41;100702.69;4883246;28;116706;-60
2021/04/27 06:08:34;;;;;;;5.30;2.70;;;;;;;14.85;43.09;100707.00;4884789;28;98515;-59
2021/04/27 06:11:00;;;;;;;4.75;2.90;;;;;;;15.05;43.01;100701.34;4881175;28;98303;-58
2021/04/27 06:13:26;;;;;;;5.55;3.22;;;;;;;15.32;42.16;100708.84;4883726;28;126822;-59
2021/04/27 06:15:52;;;;;;;5.40;3.00;;;;;;;15.55;42.09;100707.16;4883353;28;116596;-59
2021/04/27 06:18:18;;;;;;;4.25;2.83;;;;;;;15.86;41.75;100695.84;4883326;28;128930;-61
2021/04/27 06:20:44;;;;;;;5.63;3.10;;;;;;;16.28;40.67;100700.28;4884953;28;98060;-59
2021/04/27 06:23:10;;;;;;;6.05;3.25;;;;;;;16.61;40.01;100698.28;4882523;28;126594;-61
2021/04/27 06:25:36;;;;;;;4.15;2.75;;;;;;;17.13;39.26;100698.09;4898879;28;97740;-59
2021/04/27 06:28:02;;;;;;;5.20;3.20;;;;;;;17.61;38.37;100690.19;4901933;28;126571;-61
2021/04/27 06:30:28;;;;;;;5.85;3.30;;;;;;;18.06;38.07;100687.47;4902933;28;99472;-59
2021/04/27 06:32:54;;;;;;;5.38;2.80;;;;;;;18.66;37.15;100683.41;4917187;28;98655;-61
2021/04/27 06:35:21;;;;;;;4.68;2.95;;;;;;;18.65;37.27;100687.25;4902839;28;98114;-59
2021/04/27 06:37:47;;;;;;;3.97;2.83;;;;;;;19.23;36.24;100686.16;4902565;28;98486;-61
2021/04/27 06:40:14;;;;;;;4.15;2.97;;;;;;;19.78;36.03;100677.31;4902740;28;118997;-61
2021/04/27 06:42:40;;;;;;;5.22;3.22;;;;;;;20.17;34.65;100685.63;4902502;28;112183;-59
2021/04/27 06:45:07;;;;;;;4.28;3.13;;;;;;;20.67;34.24;100683.03;4905538;28;100976;-59
2021/04/27 06:47:33;;;;;;;3.97;2.90;;;;;;;20.45;33.91;100683.25;4905058;28;113823;-59
2021/04/27 06:49:59;;;;;;;6.25;3.60;;;;;;;20.41;34.12;100680.38;4905328;28;128614;-61
2021/04/27 06:52:25;;;;;;;4.20;3.15;;;;;;;20.89;33.15;100678.41;4905383;28;127400;-59
2021/04/27 06:54:51;;;;;;;4.60;3.42;;;;;;;21.43;32.09;100673.84;4904402;28;118214;-61
2021/04/27 06:57:17;;;;;;;4.20;2.95;;;;;;;21.91;31.44;100677.91;4903290;28;119295;-61
2021/04/27 06:59:44;;;;;;;4.88;3.20;;;;;;;22.27;30.98;100668.97;4905320;28;127546;-59
2021/04/27 07:02:10;;;;;;;3.92;3.20;;;;;;;22.65;30.51;100675.31;4904487;28;127120;-59
2021/04/27 07:04:36;;;;;;;4.60;3.25;;;;;;;22.83;30.23;100671.16;4906151;28;97657;-61
2021/04/27 07:07:05;;;;;;;4.43;2.90;;;;;;;22.99;30.33;100666.63;4906133;28;99055;-60
2021/04/27 07:09:31;;;;;;;4.70;3.40;;;;;;;23.13;30.22;100665.44;4906099;28;99415;-62
2021/04/27 07:11:58;;;;;;;4.47;2.75;;;;;;;23.41;29.96;100662.72;4919504;28;111752;-60
2021/04/27 07:14:25;;;;;;;4.32;2.90;;;;;;;23.80;29.84;100658.34;4904556;28;97823;-62
2021/04/27 07:16:51;;;;;;;4.22;2.75;;;;;;;24.23;29.61;100671.25;4903531;28;98294;-61
2021/04/27 07:19:17;;;;;;;4.68;2.78;;;;;;;24.54;29.08;100661.44;4887013;28;128063;-60
2021/04/27 07:21:43;;;;;;;4.35;2.65;;;;;;;24.70;28.80;100658.66;4871665;28;98049;-60
2021/04/27 07:24:09;;;;;;;3.15;2.15;;;;;;;25.08;28.45;100659.91;4905522;28;113399;-61
2021/04/27 07:26:41;;;;;;;3.15;2.13;;;;;;;25.32;27.63;100662.41;4903638;28;98342;-60
2021/04/27 07:29:08;;;;;;;3.35;2.10;;;;;;;25.65;27.61;100658.34;4904065;28;98342;-62
2021/04/27 07:31:34;;;;;;;2.67;1.88;;;;;;;25.87;26.87;100656.81;4905596;28;107207;-61
2021/04/27 07:34:00;;;;;;;2.88;1.60;;;;;;;26.01;27.08;100657.06;4888563;28;97812;-60
2021/04/27 07:36:26;;;;;;;2.20;1.55;;;;;;;26.31;26.62;100665.47;4903206;28;128918;-60
2021/04/27 07:38:52;;;;;;;2.00;1.40;;;;;;;26.33;26.56;100657.63;4904278;28;126017;-60
2021/04/27 07:41:18;;;;;;;1.98;1.15;;;;;;;26.42;26.21;100649.88;4905831;28;98307;-61
2021/04/27 07:43:44;;;;;;;2.30;1.58;;;;;;;26.70;26.23;100656.25;4904677;28;117822;-60
2021/04/27 07:46:10;;;;;;;2.05;1.40;;;;;;;26.91;25.73;100651.00;4903881;28;129124;-61
2021/04/27 07:48:37;;;;;;;2.45;1.20;;;;;;;27.29;25.45;100646.41;4905285;28;111454;-62
2021/04/27 07:51:03;;;;;;;2.00;1.20;;;;;;;27.86;23.38;100658.13;4905238;28;98112;-61
2021/04/27 07:53:29;;;;;;;1.73;0.90;;;;;;;28.09;23.84;100652.44;4905918;28;97963;-60
2021/04/27 07:55:55;;;;;;;1.30;0.90;;;;;;;28.32;24.15;100657.78;4903406;28;128522;-60
2021/04/27 07:58:21;;;;;;;1.67;1.10;;;;;;;28.81;23.42;100643.50;4905089;28;108836;-60
2021/04/27 08:00:47;;;;;;;2.00;1.02;;;;;;;29.32;23.26;100650.94;4904647;28;98366;-61
2021/04/27 08:03:13;;;;;;;1.85;1.00;;;;;;;29.76;22.45;100655.44;4904626;28;101240;-62
2021/04/27 08:05:40;;;;;;;2.67;0.90;;;;;;;30.37;22.07;100649.16;4905025;28;99161;-60
2021/04/27 08:08:06;;;;;;;1.20;0.80;;;;;;;31.01;21.58;100649.09;4903902;28;129033;-60
2021/04/27 08:10:32;;;;;;;2.70;0.90;;;;;;;31.76;20.88;100640.41;4904649;28;126440;-58
2021/04/27 08:12:58;;;;;;;1.38;0.80;;;;;;;32.52;20.07;100638.63;4904843;28;116473;-59
2021/04/27 08:15:27;;;;;;;1.38;0.70;;;;;;;33.05;19.96;100633.69;4903052;28;98551;-59
2021/04/27 08:17:54;;;;;;;1.20;0.82;;;;;;;33.84;18.80;100648.22;4903371;28;122474;-60
2021/04/27 08:20:20;;;;;;;1.58;0.90;;;;;;;34.41;18.08;100647.31;4904637;28;98073;-60
2021/04/27 08:22:48;;;;;;;1.55;0.70;;;;;;;35.12;17.51;100653.59;4902100;28;116556;-62
2021/04/27 08:25:15;;;;;;;1.42;0.70;;;;;;;35.84;17.18;100649.25;4886596;28;98271;-60
2021/04/27 08:27:42;;;;;;;3.00;0.80;;;;;;;36.12;15.44;100643.00;4903752;28;97820;-61
2021/04/27 08:30:09;;;;;;;1.45;0.60;;;;;;;36.52;16.25;100636.41;4904672;28;98407;-60
2021/04/27 08:32:35;;;;;;;0.95;0.50;;;;;;;37.27;15.45;100626.66;4903978;28;102990;-59
2021/04/27 08:35:02;;;;;;;1.42;0.50;;;;;;;37.36;15.63;100625.97;4903932;28;103605;-61
2021/04/27 08:37:29;;;;;;;1.50;0.60;;;;;;;37.61;15.86;100624.44;4901486;28;98667;-61
2021/04/27 08:39:55;;;;;;;1.10;0.47;;;;;;;38.16;15.07;100619.44;4903520;28;97989;-60
2021/04/27 08:42:22;;;;;;;2.25;0.50;;;;;;;38.67;14.31;100627.72;4903241;28;116283;-59
2021/04/27 08:44:48;;;;;;;1.30;0.43;;;;;;;39.11;14.45;100622.13;4917242;28;98813;-59
2021/04/27 08:47:14;;;;;;;1.30;0.40;;;;;;;39.52;14.50;100618.91;4902116;28;127997;-59
2021/04/27 08:49:40;;;;;;;1.27;0.43;;;;;;;40.11;13.91;100624.59;4901558;28;128282;-59
2021/04/27 08:52:06;;;;;;;1.20;0.50;;;;;;;40.54;13.36;100605.03;4901806;28;119383;-59
2021/04/27 08:54:34;;;;;;;1.73;0.40;;;;;;;41.08;13.21;100609.84;4902744;28;124318;-61
2021/04/27 08:57:01;;;;;;;1.15;0.50;;;;;;;41.51;12.93;100604.22;4916977;28;98410;-59
2021/04/27 08:59:27;;;;;;;0.88;0.45;;;;;;;41.75;13.21;100599.38;4900286;28;97885;-61
2021/04/27 09:01:53;;;;;;;0.82;0.35;;;;;;;41.76;12.96;100592.44;4903556;28;97846;-61
2021/04/27 09:04:48;;;;;;;1.13;0.40;;;;;;;42.16;12.96;100583.53;4903483;28;104235;-59
2021/04/27 09:07:17;;;;;;;1.13;0.40;;;;;;;42.34;12.00;100588.31;4903243;28;98762;-61
2021/04/27 09:09:48;;;;;;;1.00;0.50;;;;;;;42.35;12.31;100572.88;4903969;28;98718;-61
2021/04/27 09:12:19;;;;;;;0.80;0.40;;;;;;;42.27;12.18;100573.75;4903883;28;97846;-61
2021/04/27 09:14:47;;;;;;;1.20;0.40;;;;;;;41.42;13.07;100563.41;4901375;28;109599;-59
2021/04/27 09:17:13;;;;;;;0.95;0.30;;;;;;;40.79;13.65;100562.34;4903520;28;98313;-61
2021/04/27 09:19:44;;;;;;;1.35;0.40;;;;;;;40.58;14.11;100550.00;4903468;28;98263;-61
2021/04/27 09:22:17;;;;;;;;;;;;;;;41.64;13.60;100549.00;4903932;28;97819;-61
2021/04/27 09:24:52;;;;;;;0.90;0.30;;;;;;;41.36;13.49;100545.53;4903754;28;98653;-60
2021/04/27 09:27:48;;;;;;;0.63;0.30;;;;;;;42.19;12.45;100545.00;4902610;28;98929;-61
2021/04/27 09:30:26;;;;;;;2.15;0.30;;;;;;;42.75;12.64;100548.13;4901350;28;98022;-61
2021/04/27 09:33:09;;;;;;;0.50;0.30;;;;;;;43.77;11.62;100548.44;4901629;28;97838;-60
2021/04/27 09:35:46;;;;;;;1.42;0.32;;;;;;;44.08;11.75;100547.81;4902308;28;98321;-62
2021/04/27 09:38:30;;;;;;;0.60;0.30;;;;;;;44.71;11.38;100542.31;4902994;28;98476;-62
2021/04/27 09:40:59;;;;;;;0.98;0.30;;;;;;;44.81;11.38;100540.06;4902108;28;98182;-62
2021/04/27 09:43:38;;;;;;;0.82;0.20;;;;;;;44.83;10.97;100528.97;4902961;28;103459;-62
2021/04/27 09:46:07;;;;;;;0.70;0.30;;;;;;;45.53;10.84;100519.13;4902978;28;98362;-60
2021/04/27 09:48:52;;;;;;;0.93;0.30;;;;;;;45.95;10.60;100517.53;4903142;28;99031;-62
2021/04/27 09:51:23;;;;;;;1.90;0.30;;;;;;;46.16;10.44;100512.41;4902047;28;98476;-62
2021/04/27 09:53:58;;;;;;;0.73;0.30;;;;;;;45.99;10.49;100518.06;4918085;28;97881;-62
2021/04/27 09:56:49;;;;;;;1.27;0.30;;;;;;;46.31;10.36;100512.19;4902436;28;99076;-62
2021/04/27 09:59:28;;;;;;;0.85;0.30;;;;;;;46.04;10.39;100508.75;4883533;28;99219;-62
2021/04/27 10:02:01;;;;;;;0.68;0.30;;;;;;;46.58;10.49;100499.31;4883265;28;98860;-60
2021/04/27 10:04:27;;;;;;;0.60;0.30;;;;;;;46.62;9.95;100492.03;4883266;28;97966;-62
2021/04/27 10:06:53;;;;;;;0.95;0.30;;;;;;;46.42;10.50;100493.06;4881301;28;98256;-62
2021/04/27 10:09:19;;;;;;;0.95;0.30;;;;;;;46.26;10.76;100494.59;4881107;28;100879;-62
2021/04/27 10:11:49;;;;;;;0.80;0.30;;;;;;;46.40;10.74;100484.22;4882957;28;98466;-60
2021/04/27 10:14:15;;;;;;;0.60;0.20;;;;;;;46.35;10.57;100481.41;4898136;28;97889;-62
2021/04/27 10:16:41;;;;;;;1.35;0.50;;;;;;;42.02;6.54;100473.94;4881794;28;98922;-62
2021/04/27 10:19:08;;;;;;;1.60;0.60;;;;;;;40.01;5.97;100439.66;4890700;28;128641;-59
2021/04/27 10:21:35;;;;;;;1.20;0.70;;;;;;;39.09;6.19;100461.22;4902377;28;98785;-61
2021/04/27 10:24:03;;;;;;;1.98;0.70;;;;;;;38.11;6.72;100459.69;4903350;28;97982;-59
2021/04/27 10:26:31;;;;;;;2.97;0.60;;;;;;;37.48;6.71;100447.41;4896990;28;98459;-59
2021/04/27 10:29:00;;;;;;;2.65;0.60;;;;;;;37.06;6.98;100447.53;4882102;28;98977;-61
2021/04/27 10:31:28;;;;;;;2.92;0.80;;;;;;;36.78;6.93;100437.97;4882325;28;98227;-59
2021/04/27 10:34:12;;;;;;;1.92;0.90;;;;;;;36.59;6.81;100448.19;4883085;28;97946;-59
2021/04/27 10:37:04;;;;;;;2.00;0.82;;;;;;;36.84;6.64;100436.97;4882688;28;99157;-61
2021/04/27 10:39:42;;;;;;;1.35;0.85;;;;;;;36.11;7.12;100431.06;4881219;28;98631;-60
2021/04/27 10:42:19;;;;;;;2.53;0.63;;;;;;;35.63;7.32;100432.75;4891814;28;97949;-61
2021/04/27 10:44:56;;;;;;;1.50;0.70;;;;;;;34.98;7.33;100434.72;4916886;28;97772;-59
2021/04/27 10:47:23;;;;;;;1.40;0.77;;;;;;;33.82;7.84;100434.69;4902479;28;98485;-60
2021/04/27 10:49:51;;;;;;;2.75;0.80;;;;;;;34.02;8.16;100421.53;4902567;28;98950;-61
2021/04/27 10:52:38;;;;;;;1.25;0.70;;;;;;;34.67;7.84;100419.03;4902000;28;98429;-61
2021/04/27 10:55:30;;;;;;;1.73;0.70;;;;;;;34.60;7.86;100413.59;4901448;28;98230;-59
2021/04/27 10:58:01;;;;;;;1.92;0.80;;;;;;;34.16;8.43;100421.28;4901580;28;100236;-62
2021/04/27 11:00:43;;;;;;;1.00;0.75;;;;;;;33.69;8.45;100403.78;4901498;28;98876;-60
2021/04/27 11:03:20;;;;;;;;;;;;;;;34.50;7.56;100400.59;4899641;28;98510;-61
2021/04/27 11:06:00;;;;;;;2.13;0.80;;;;;;;33.46;8.17;100399.00;4902753;28;97647;-61
2021/04/27 11:09:12;;;;;;;1.90;0.80;;;;;;;33.12;8.62;100401.94;4899616;28;98959;-59
2021/04/27 11:11:38;;;;;;;1.92;0.75;;;;;;;32.57;8.47;100391.94;4840416;28;98626;-61
2021/04/27 11:14:21;;;;;;;2.13;0.88;;;;;;;32.40;8.96;100388.22;4893393;28;98456;-60
2021/04/27 11:16:54;;;;;;;3.83;0.70;;;;;;;31.84;9.07;100379.25;4901786;28;97716;-60
2021/04/27 11:19:22;;;;;;;1.80;0.93;;;;;;;31.79;9.43;100380.47;4901227;28;98441;-59
2021/04/27 11:21:53;;;;;;;1.60;0.80;;;;;;;31.48;9.38;100385.16;4902199;28;98605;-61
2021/04/27 11:24:38;;;;;;;3.88;0.68;;;;;;;31.58;9.30;100375.94;4899975;28;98057;-60
2021/04/27 11:27:05;;;;;;;1.33;0.45;;;;;;;31.60;9.13;100375.50;4901399;28;97879;-59
2021/04/27 11:29:33;;;;;;;2.20;0.60;;;;;;;32.24;9.27;100374.84;4902442;28;119178;-61
2021/04/27 11:32:16;;;;;;;1.80;0.80;;;;;;;32.29;8.76;100366.00;4904609;28;98399;-61